createdAt,value
2018-07-17T00:03:06.442Z,99455.91
2018-07-17T00:08:11.186Z,99457.78
2018-07-17T00:13:15.827Z,99463.53
2018-07-17T00:18:20.683Z,99463.37
2018-07-17T00:23:25.037Z,99466.83
2018-07-17T00:28:29.742Z,99483.00
2018-07-17T00:33:34.368Z,99472.19
2018-07-17T00:38:39.162Z,99476.40
2018-07-17T00:43:43.832Z,99463.67
2018-07-17T00:48:48.534Z,99465.98
2018-07-17T00:53:53.172Z,99465.33
2018-07-17T00:58:57.864Z,99463.12
2018-07-17T01:04:07.621Z,99462.55
2018-07-17T01:09:17.540Z,99464.45
2018-07-17T01:14:29.341Z,99471.95
2018-07-17T01:19:34.052Z,99469.78
2018-07-17T01:24:38.687Z,99463.25
2018-07-17T01:29:43.363Z,99462.79
2018-07-17T01:34:48.083Z,99457.58
2018-07-17T01:39:52.685Z,99449.49
2018-07-17T01:44:57.325Z,99447.47
2018-07-17T01:50:01.988Z,99452.64
2018-07-17T01:55:06.635Z,99448.49
2018-07-17T02:00:11.387Z,99451.57
2018-07-17T02:05:16.106Z,99456.72
2018-07-17T02:10:20.747Z,99456.22
2018-07-17T02:15:25.388Z,99451.30
2018-07-17T02:20:30.087Z,99452.33
2018-07-17T02:25:34.714Z,99442.13
2018-07-17T02:30:39.409Z,99443.34
2018-07-17T02:35:43.792Z,99444.61
2018-07-17T02:40:48.458Z,99452.97
2018-07-17T02:45:53.098Z,99456.08
2018-07-17T02:50:57.708Z,99458.46
2018-07-17T02:56:02.387Z,99454.93
2018-07-17T03:01:07.398Z,99455.89
2018-07-17T03:06:12.023Z,99456.53
2018-07-17T03:11:16.658Z,99457.73
2018-07-17T03:16:21.314Z,99458.44
2018-07-17T03:21:25.952Z,99462.89
2018-07-17T03:26:30.818Z,99462.59
2018-07-17T03:31:35.439Z,99458.48
2018-07-17T03:36:39.739Z,99464.16
2018-07-17T03:41:44.458Z,99461.13
2018-07-17T03:46:49.125Z,99472.83
2018-07-17T03:51:53.798Z,99474.91
2018-07-17T03:56:58.735Z,99477.89
2018-07-17T04:02:03.368Z,99483.54
2018-07-17T04:07:08.041Z,99482.53
2018-07-17T04:12:12.801Z,99483.27
2018-07-17T04:17:17.561Z,99482.09
2018-07-17T04:22:22.786Z,99484.23
2018-07-17T04:27:27.811Z,99486.45
2018-07-17T04:32:32.533Z,99481.41
2018-07-17T04:37:37.196Z,99483.65
2018-07-17T04:42:41.896Z,99489.44
2018-07-17T04:47:46.558Z,99489.39
2018-07-17T04:52:51.276Z,99484.48
2018-07-17T04:57:56.405Z,99486.45
2018-07-17T05:03:01.170Z,99505.85
2018-07-17T05:08:06.253Z,99512.88
2018-07-17T05:13:10.939Z,99502.87
2018-07-17T05:18:15.761Z,99501.77
2018-07-17T05:23:20.655Z,99499.59
2018-07-17T05:28:25.388Z,99504.86
2018-07-17T05:33:30.159Z,99512.94
2018-07-17T05:38:34.749Z,99519.45
2018-07-17T05:43:39.385Z,99526.53
2018-07-17T05:48:44.113Z,99522.29
2018-07-17T05:53:48.836Z,99517.02
2018-07-17T05:58:53.515Z,99518.55
2018-07-17T06:03:58.263Z,99518.81
2018-07-17T06:09:03.063Z,99521.04
2018-07-17T06:14:07.820Z,99521.14
2018-07-17T06:19:12.527Z,99523.91
2018-07-17T06:24:17.270Z,99519.55
2018-07-17T06:29:21.634Z,99518.00
2018-07-17T06:34:26.339Z,99519.22
2018-07-17T06:39:31.009Z,99524.99
2018-07-17T06:44:35.702Z,99513.44
2018-07-17T06:49:40.426Z,99519.45
2018-07-17T06:54:45.104Z,99518.50
2018-07-17T06:59:49.834Z,99516.83
2018-07-17T07:04:54.521Z,99509.50
2018-07-17T07:09:59.189Z,99505.87
2018-07-17T07:15:03.837Z,99498.24
2018-07-17T07:20:08.725Z,99490.74
2018-07-17T07:25:13.389Z,99490.94
2018-07-17T07:30:18.113Z,99487.58
2018-07-17T07:35:22.788Z,99488.77
2018-07-17T07:40:27.511Z,99489.64
2018-07-17T07:45:32.275Z,99486.89
2018-07-17T07:50:36.885Z,99485.77
2018-07-17T07:55:41.885Z,99483.13
2018-07-17T08:00:46.519Z,99486.59
2018-07-17T08:05:51.382Z,99495.02
2018-07-17T08:10:56.169Z,99496.69
2018-07-17T08:16:00.878Z,99491.70
2018-07-17T08:21:05.504Z,99496.16
2018-07-17T08:26:10.220Z,99489.80
2018-07-17T08:31:14.701Z,99490.73
2018-07-17T08:36:19.658Z,99485.33
2018-07-17T08:41:24.392Z,99482.30
2018-07-17T08:46:29.067Z,99485.89
2018-07-17T08:51:33.808Z,99485.58
2018-07-17T08:56:38.446Z,99478.03
2018-07-17T09:01:43.099Z,99477.67
2018-07-17T09:06:47.980Z,99474.92
2018-07-17T09:11:52.710Z,99474.41
2018-07-17T09:16:57.496Z,99480.41
2018-07-17T09:22:02.330Z,99477.20
2018-07-17T09:27:07.106Z,99481.75
2018-07-17T09:32:11.828Z,99478.45
2018-07-17T09:37:16.700Z,99485.13
2018-07-17T09:42:21.264Z,99477.36
2018-07-17T09:47:26.016Z,99481.39
2018-07-17T09:52:30.727Z,99483.70
2018-07-17T09:57:35.398Z,99481.31
2018-07-17T10:02:40.099Z,99478.03
2018-07-17T10:07:44.888Z,99480.93
2018-07-17T10:12:49.565Z,99481.78
2018-07-17T10:17:54.218Z,99485.46
2018-07-17T10:22:59.427Z,99483.16
2018-07-17T10:28:04.085Z,99487.64
2018-07-17T10:33:08.750Z,99472.00
2018-07-17T10:38:13.686Z,99477.66
2018-07-17T10:43:18.359Z,99472.78
2018-07-17T10:48:23.046Z,99479.14
2018-07-17T10:53:27.660Z,99467.56
2018-07-17T10:58:32.325Z,99466.17
2018-07-17T11:03:37.048Z,99453.52
2018-07-17T11:08:41.784Z,99458.86
2018-07-17T11:13:46.856Z,99456.92
2018-07-17T11:18:51.561Z,99442.18
2018-07-17T11:23:56.291Z,99438.94
2018-07-17T11:29:00.943Z,99440.80
2018-07-17T11:34:05.717Z,99437.55
2018-07-17T11:39:10.476Z,99432.16
2018-07-17T11:44:15.203Z,99419.56
2018-07-17T11:49:19.888Z,99427.08
2018-07-17T11:54:24.635Z,99417.38
2018-07-17T11:59:29.498Z,99423.48
2018-07-17T12:04:34.049Z,99417.62
2018-07-17T12:09:38.762Z,99411.66
2018-07-17T12:14:43.473Z,99403.03
2018-07-17T12:19:48.275Z,99411.91
2018-07-17T12:24:52.920Z,99409.69
2018-07-17T12:29:57.268Z,99397.33
2018-07-17T12:35:02.913Z,99395.05
2018-07-17T12:40:07.835Z,99387.14
2018-07-17T12:45:12.633Z,99393.11
2018-07-17T12:50:17.556Z,99388.17
2018-07-17T12:55:22.334Z,99398.61
2018-07-17T13:00:27.033Z,99399.97
2018-07-17T13:05:31.905Z,99395.05
2018-07-17T13:10:36.560Z,99389.83
2018-07-17T13:15:41.366Z,99397.45
2018-07-17T13:20:45.997Z,99391.34
2018-07-17T13:25:50.729Z,99384.13
2018-07-17T13:30:55.363Z,99382.42
2018-07-17T13:36:00.134Z,99394.19
2018-07-17T13:41:04.939Z,99402.28
2018-07-17T13:46:10.236Z,99412.39
2018-07-17T13:51:14.955Z,99422.02
2018-07-17T13:56:19.722Z,99430.30
2018-07-17T14:01:24.359Z,99425.76
2018-07-17T14:06:29.147Z,99423.91
2018-07-17T14:11:33.909Z,99424.63
2018-07-17T14:16:38.760Z,99427.75
2018-07-17T14:21:43.461Z,99427.05
2018-07-17T14:26:48.257Z,99424.28
2018-07-17T14:31:53.006Z,99421.84
2018-07-17T14:36:57.779Z,99417.22
2018-07-17T14:42:02.512Z,99411.56
2018-07-17T14:47:07.222Z,99409.54
2018-07-17T14:52:12.365Z,99405.48
2018-07-17T14:57:17.067Z,99404.55
2018-07-17T15:02:21.883Z,99403.92
2018-07-17T15:07:26.700Z,99398.03
2018-07-17T15:12:30.997Z,99394.41
2018-07-17T15:17:35.739Z,99391.66
2018-07-17T15:22:40.498Z,99390.31
2018-07-17T15:27:45.215Z,99386.02
2018-07-17T15:32:49.887Z,99388.14
2018-07-17T15:37:54.664Z,99391.60
2018-07-17T15:42:59.407Z,99384.33
2018-07-17T15:48:04.384Z,99387.16
2018-07-17T15:53:09.196Z,99386.95
2018-07-17T15:58:13.924Z,99380.20
2018-07-17T16:03:18.650Z,99388.11
2018-07-17T16:08:23.626Z,99383.84
2018-07-17T16:13:28.485Z,99391.13
2018-07-17T16:18:33.152Z,99394.53
2018-07-17T16:23:37.945Z,99400.16
2018-07-17T16:28:43.596Z,99402.55
2018-07-17T16:33:48.296Z,99406.20
2018-07-17T16:38:53.538Z,99412.08
2018-07-17T16:43:58.260Z,99411.28
2018-07-17T16:49:03.072Z,99417.67
2018-07-17T16:54:07.910Z,99419.19
2018-07-17T16:59:12.826Z,99415.16
2018-07-17T17:04:17.662Z,99405.36
2018-07-17T17:09:22.081Z,99420.67
2018-07-17T17:14:27.646Z,99432.03
2018-07-17T17:19:32.418Z,99427.13
2018-07-17T17:24:37.620Z,99430.63
2018-07-17T17:29:42.404Z,99432.72
2018-07-17T17:34:47.174Z,99439.45
2018-07-17T17:39:52.061Z,99437.33
2018-07-17T17:44:56.809Z,99445.22
2018-07-17T17:50:01.744Z,99451.00
2018-07-17T17:55:06.665Z,99462.99
2018-07-17T18:00:11.605Z,99482.18
2018-07-17T18:05:16.134Z,99488.17
2018-07-17T18:10:21.038Z,99501.01
2018-07-17T18:15:25.804Z,99511.10
2018-07-17T18:20:30.627Z,99499.02
2018-07-17T18:25:36.397Z,99507.48
2018-07-17T18:30:41.345Z,99506.23
2018-07-17T18:35:46.276Z,99504.92
2018-07-17T18:40:51.213Z,99506.11
2018-07-17T18:45:56.036Z,99511.74
2018-07-17T18:51:01.383Z,99500.01
2018-07-17T18:56:06.425Z,99513.03
2018-07-17T19:01:11.201Z,99515.11
2018-07-17T19:06:16.263Z,99525.81
2018-07-17T19:11:21.281Z,99526.72
2018-07-17T19:16:26.286Z,99527.47
2018-07-17T19:21:31.206Z,99532.88
2018-07-17T19:26:36.850Z,99533.99
2018-07-17T19:31:42.297Z,99541.94
2018-07-17T19:36:47.558Z,99550.84
2018-07-17T19:41:52.498Z,99560.41
2018-07-17T19:46:58.457Z,99564.04
2018-07-17T19:52:04.170Z,99562.20
2018-07-17T19:57:10.192Z,99567.58
2018-07-17T20:02:14.962Z,99567.15
2018-07-17T20:07:19.724Z,99572.92
2018-07-17T20:12:24.836Z,99579.83
2018-07-17T20:17:29.674Z,99585.41
2018-07-17T20:22:34.686Z,99599.45
2018-07-17T20:27:39.428Z,99600.58
2018-07-17T20:32:44.406Z,99603.34
2018-07-17T20:37:51.246Z,99607.75
2018-07-17T20:42:55.960Z,99613.51
2018-07-17T20:48:00.747Z,99608.92
2018-07-17T20:53:06.342Z,99603.49
2018-07-17T20:58:11.096Z,99604.61
2018-07-17T21:03:15.886Z,99602.17
2018-07-17T21:08:20.754Z,99609.80
2018-07-17T21:13:25.549Z,99610.09
2018-07-17T21:18:30.309Z,99612.27
2018-07-17T21:23:35.030Z,99622.38
2018-07-17T21:28:39.799Z,99622.12
2018-07-17T21:33:44.596Z,99633.02
2018-07-17T21:38:49.451Z,99644.45
2018-07-17T21:43:54.170Z,99642.50
2018-07-17T21:48:58.919Z,99641.08
2018-07-17T21:54:03.758Z,99639.42
2018-07-17T21:59:08.596Z,99638.85
2018-07-17T22:04:13.341Z,99644.82
2018-07-17T22:09:18.257Z,99651.61
2018-07-17T22:14:23.108Z,99652.37
2018-07-17T22:19:27.885Z,99655.34
2018-07-17T22:24:32.729Z,99661.80
2018-07-17T22:29:37.524Z,99663.16
2018-07-17T22:34:42.197Z,99668.61
2018-07-17T22:39:46.888Z,99674.82
2018-07-17T22:44:51.603Z,99669.63
2018-07-17T22:49:56.815Z,99674.44
2018-07-17T22:55:01.657Z,99675.53
2018-07-17T23:00:07.419Z,99680.80
2018-07-17T23:05:12.117Z,99681.13
2018-07-17T23:10:16.955Z,99677.61
2018-07-17T23:15:21.843Z,99687.31
2018-07-17T23:20:26.471Z,99678.63
2018-07-17T23:25:32.543Z,99687.56
2018-07-17T23:30:37.501Z,99688.30
2018-07-17T23:35:42.331Z,99697.64
2018-07-17T23:40:47.240Z,99692.11
2018-07-17T23:45:52.051Z,99700.77
2018-07-17T23:50:56.978Z,99698.92
2018-07-17T23:56:02.030Z,99704.28
